createdAt,value
2022-07-25T00:01:49.996Z,99673.25
2022-07-25T00:04:17.634Z,99664.44
2022-07-25T00:06:46.012Z,99669.78
2022-07-25T00:09:13.329Z,99669.06
2022-07-25T00:11:40.466Z,99674.66
2022-07-25T00:14:07.857Z,99669.75
2022-07-25T00:16:35.088Z,99668.91
2022-07-25T00:19:02.393Z,99675.00
2022-07-25T00:21:29.524Z,99662.25
2022-07-25T00:23:56.519Z,99653.41
2022-07-25T00:26:23.698Z,99653.75
2022-07-25T00:28:50.810Z,99661.91
2022-07-25T00:31:17.703Z,99654.03
2022-07-25T00:33:44.627Z,99658.81
2022-07-25T00:36:11.683Z,99658.22
2022-07-25T00:38:38.598Z,99662.03
2022-07-25T00:41:05.711Z,99653.22
2022-07-25T00:43:32.765Z,99657.63
2022-07-25T00:46:00.590Z,99664.06
2022-07-25T00:48:29.025Z,99655.47
2022-07-25T00:50:57.138Z,99661.94
2022-07-25T00:53:24.741Z,99661.09
2022-07-25T00:55:52.802Z,99661.09
2022-07-25T00:58:20.047Z,99666.94
2022-07-25T01:00:48.396Z,99663.09
2022-07-25T01:03:16.436Z,99658.72
2022-07-25T01:05:43.392Z,99661.47
2022-07-25T01:08:10.994Z,99652.31
2022-07-25T01:10:38.163Z,99651.56
2022-07-25T01:13:05.647Z,99650.25
2022-07-25T01:15:32.916Z,99648.63
2022-07-25T01:17:59.869Z,99654.31
2022-07-25T01:20:29.655Z,99648.38
2022-07-25T01:22:57.662Z,99650.63
2022-07-25T01:25:25.566Z,99653.75
2022-07-25T01:27:55.780Z,99661.81
2022-07-25T01:30:25.138Z,99664.69
2022-07-25T01:32:53.045Z,99661.38
2022-07-25T01:35:20.133Z,99664.09
2022-07-25T01:37:47.141Z,99671.00
2022-07-25T01:40:14.904Z,99662.53
2022-07-25T01:42:43.136Z,99660.88
2022-07-25T01:45:11.572Z,99659.56
2022-07-25T01:47:39.370Z,99653.88
2022-07-25T01:50:07.360Z,99652.78
2022-07-25T01:52:34.217Z,99643.97
2022-07-25T01:55:01.068Z,99657.41
2022-07-25T01:57:31.076Z,99654.91
2022-07-25T01:59:59.548Z,99651.72
2022-07-25T02:02:27.368Z,99651.72
2022-07-25T02:04:54.536Z,99662.16
2022-07-25T02:07:21.489Z,99656.09
2022-07-25T02:09:52.120Z,99651.94
2022-07-25T02:12:21.760Z,99652.53
2022-07-25T02:14:48.612Z,99656.94
2022-07-25T02:17:15.827Z,99660.75
2022-07-25T02:19:42.912Z,99665.06
2022-07-25T02:22:09.749Z,99664.22
2022-07-25T02:24:37.396Z,99659.94
2022-07-25T02:27:05.561Z,99647.78
2022-07-25T02:29:33.509Z,99656.72
2022-07-25T02:32:00.385Z,99656.72
2022-07-25T02:34:27.603Z,99647.56
2022-07-25T02:36:54.490Z,99651.50
2022-07-25T02:39:21.573Z,99656.00
2022-07-25T02:41:48.761Z,99646.97
2022-07-25T02:44:15.563Z,99639.59
2022-07-25T02:46:42.368Z,99628.25
2022-07-25T02:49:10.153Z,99624.69
2022-07-25T02:51:37.048Z,99620.91
2022-07-25T02:54:04.008Z,99617.53
2022-07-25T02:56:31.868Z,99619.69
2022-07-25T02:58:59.332Z,99610.41
2022-07-25T03:01:26.259Z,99621.38
2022-07-25T03:03:53.246Z,99618.25
2022-07-25T03:06:20.122Z,99610.53
2022-07-25T03:08:46.964Z,99603.75
2022-07-25T03:11:14.416Z,99606.50
2022-07-25T03:13:41.497Z,99601.25
2022-07-25T03:16:09.956Z,99591.59
2022-07-25T03:18:37.307Z,99601.25
2022-07-25T03:21:04.549Z,99594.69
2022-07-25T03:23:32.455Z,99597.94
2022-07-25T03:25:59.490Z,99605.63
2022-07-25T03:28:26.360Z,99600.66
2022-07-25T03:30:53.747Z,99601.88
2022-07-25T03:33:20.695Z,99599.72
2022-07-25T03:35:47.901Z,99590.41
2022-07-25T03:38:14.737Z,99596.25
2022-07-25T03:40:41.617Z,99594.59
2022-07-25T03:43:09.061Z,99590.19
2022-07-25T03:45:35.982Z,99602.44
2022-07-25T03:48:03.093Z,99604.09
2022-07-25T03:50:30.121Z,99603.28
2022-07-25T03:52:56.977Z,99610.91
2022-07-25T03:55:24.117Z,99611.13
2022-07-25T03:57:51.124Z,99611.81
2022-07-25T04:00:18.561Z,99611.22
2022-07-25T04:02:45.588Z,99610.31
2022-07-25T04:05:12.576Z,99610.53
2022-07-25T04:07:39.904Z,99604.84
2022-07-25T04:10:07.857Z,99603.16
2022-07-25T04:12:35.041Z,99603.63
2022-07-25T04:15:01.938Z,99597.09
2022-07-25T04:17:28.776Z,99586.03
2022-07-25T04:19:56.107Z,99595.91
2022-07-25T04:22:23.590Z,99588.75
2022-07-25T04:24:50.522Z,99590.22
2022-07-25T04:27:17.535Z,99588.75
2022-07-25T04:29:44.394Z,99584.59
2022-07-25T04:32:11.340Z,99589.25
2022-07-25T04:34:38.366Z,99596.13
2022-07-25T04:37:05.306Z,99596.09
2022-07-25T04:39:32.270Z,99595.03
2022-07-25T04:41:59.167Z,99598.50
2022-07-25T04:44:26.210Z,99600.72
2022-07-25T04:46:53.419Z,99598.22
2022-07-25T04:49:20.311Z,99600.81
2022-07-25T04:51:47.227Z,99607.81
2022-07-25T04:54:14.155Z,99608.91
2022-07-25T04:56:40.997Z,99606.28
2022-07-25T04:59:08.162Z,99605.13
2022-07-25T05:01:35.966Z,99597.75
2022-07-25T05:04:03.163Z,99612.03
2022-07-25T05:06:30.170Z,99618.09
2022-07-25T05:08:57.016Z,99613.69
2022-07-25T05:11:24.015Z,99610.25
2022-07-25T05:13:50.940Z,99604.78
2022-07-25T05:16:17.833Z,99610.63
2022-07-25T05:18:44.673Z,99609.06
2022-07-25T05:21:12.692Z,99609.31
2022-07-25T05:23:40.287Z,99617.66
2022-07-25T05:26:07.160Z,99620.75
2022-07-25T05:28:34.179Z,99620.38
2022-07-25T05:31:01.477Z,99622.19
2022-07-25T05:33:28.489Z,99618.75
2022-07-25T05:35:55.450Z,99624.25
2022-07-25T05:38:22.337Z,99613.19
2022-07-25T05:40:52.473Z,99606.09
2022-07-25T05:43:19.865Z,99607.94
2022-07-25T05:45:47.843Z,99605.66
2022-07-25T05:48:15.752Z,99615.44
2022-07-25T05:50:42.879Z,99612.44
2022-07-25T05:53:10.091Z,99614.41
2022-07-25T05:55:40.247Z,99620.31
2022-07-25T05:58:09.621Z,99630.25
2022-07-25T06:00:38.118Z,99627.06
2022-07-25T06:03:05.288Z,99626.03
2022-07-25T06:05:32.623Z,99634.25
2022-07-25T06:07:59.625Z,99636.78
2022-07-25T06:10:26.618Z,99637.75
2022-07-25T06:12:53.841Z,99637.88
2022-07-25T06:15:22.518Z,99642.91
2022-07-25T06:17:53.337Z,99643.13
2022-07-25T06:20:20.630Z,99631.00
2022-07-25T06:22:47.517Z,99636.50
2022-07-25T06:25:15.180Z,99638.97
2022-07-25T06:27:42.789Z,99649.09
2022-07-25T06:30:19.664Z,99653.97
2022-07-25T06:32:51.357Z,99652.19
2022-07-25T06:35:18.948Z,99655.28
2022-07-25T06:37:46.006Z,99665.16
2022-07-25T06:40:13.511Z,99658.63
2022-07-25T06:42:46.180Z,99658.50
2022-07-25T06:45:14.452Z,99664.94
2022-07-25T06:47:43.203Z,99656.59
2022-07-25T06:50:14.783Z,99662.53
2022-07-25T06:52:42.349Z,99663.09
2022-07-25T06:55:11.184Z,99663.97
2022-07-25T06:57:38.240Z,99669.19
2022-07-25T07:00:10.205Z,99672.28
2022-07-25T07:03:01.768Z,99663.09
2022-07-25T07:05:33.511Z,99677.97
2022-07-25T07:08:01.308Z,99678.69
2022-07-25T07:10:28.857Z,99676.88
2022-07-25T07:13:15.333Z,99686.88
2022-07-25T07:15:50.266Z,99677.81
2022-07-25T07:18:19.060Z,99685.41
2022-07-25T07:20:47.513Z,99696.13
2022-07-25T07:23:17.089Z,99679.31
2022-07-25T07:25:47.278Z,99686.09
2022-07-25T07:28:15.797Z,99693.56
2022-07-25T07:33:30.129Z,99695.16
2022-07-25T07:35:57.392Z,99701.09
2022-07-25T07:38:25.258Z,99709.56
2022-07-25T07:40:53.222Z,99708.47
2022-07-25T07:43:20.651Z,99711.81
2022-07-25T07:45:47.625Z,99704.41
2022-07-25T07:48:14.658Z,99708.31
2022-07-25T07:50:41.600Z,99710.66
2022-07-25T07:53:08.577Z,99718.31
2022-07-25T07:55:44.286Z,99717.81
2022-07-25T07:58:16.986Z,99721.16
2022-07-25T08:00:47.520Z,99730.56
2022-07-25T08:03:20.523Z,99738.31
2022-07-25T08:05:49.145Z,99732.94
2022-07-25T08:08:17.020Z,99728.88
2022-07-25T08:10:47.954Z,99730.31
2022-07-25T08:13:28.430Z,99730.34
2022-07-25T08:16:00.201Z,99743.31
2022-07-25T08:18:30.184Z,99741.00
2022-07-25T08:20:57.705Z,99729.47
2022-07-25T08:23:25.863Z,99739.03
2022-07-25T08:25:52.811Z,99746.56
2022-07-25T08:28:20.399Z,99741.22
2022-07-25T08:30:47.555Z,99727.72
2022-07-25T08:33:18.526Z,99734.69
2022-07-25T08:35:49.361Z,99729.31
2022-07-25T08:38:16.657Z,99725.44
2022-07-25T08:40:43.609Z,99725.97
2022-07-25T08:43:16.068Z,99732.94
2022-07-25T08:45:47.827Z,99734.88
2022-07-25T08:48:18.842Z,99744.59
2022-07-25T08:50:47.276Z,99748.13
2022-07-25T08:53:32.666Z,99750.09
2022-07-25T08:56:00.608Z,99744.06
2022-07-25T08:58:27.552Z,99750.88
2022-07-25T09:00:54.404Z,99750.25
2022-07-25T09:03:21.891Z,99750.50
2022-07-25T09:05:48.863Z,99759.50
2022-07-25T09:08:20.611Z,99762.00
2022-07-25T09:10:53.258Z,99764.13
2022-07-25T09:13:22.745Z,99765.75
2022-07-25T09:15:57.018Z,99763.78
2022-07-25T09:18:27.573Z,99766.97
2022-07-25T09:21:01.683Z,99763.19
2022-07-25T09:23:38.157Z,99762.88
2022-07-25T09:26:15.378Z,99768.84
2022-07-25T09:28:48.304Z,99767.94
2022-07-25T09:31:17.585Z,99774.28
2022-07-25T09:34:01.787Z,99778.69
2022-07-25T09:36:28.621Z,99779.69
2022-07-25T09:39:02.893Z,99784.06
2022-07-25T09:41:41.319Z,99781.34
2022-07-25T09:44:30.381Z,99780.03
2022-07-25T09:46:59.230Z,99784.22
2022-07-25T09:49:27.039Z,99780.06
2022-07-25T09:51:55.277Z,99786.34
2022-07-25T09:54:24.215Z,99790.91
2022-07-25T09:56:52.416Z,99794.44
2022-07-25T09:59:21.787Z,99798.25
2022-07-25T10:02:17.918Z,99795.75
2022-07-25T10:05:08.294Z,99802.53
2022-07-25T10:07:39.124Z,99810.47
2022-07-25T10:10:07.101Z,99815.84
2022-07-25T10:12:35.017Z,99819.59
2022-07-25T10:15:13.988Z,99809.66
2022-07-25T10:17:42.122Z,99814.75
2022-07-25T10:20:11.246Z,99817.69
2022-07-25T10:22:57.597Z,99821.09
2022-07-25T10:25:25.131Z,99819.22
2022-07-25T10:28:03.109Z,99831.34
2022-07-25T10:30:39.593Z,99829.03
2022-07-25T10:33:18.922Z,99836.84
2022-07-25T10:35:46.492Z,99841.25
2022-07-25T10:38:13.694Z,99835.59
2022-07-25T10:40:46.748Z,99841.16
2022-07-25T10:43:22.018Z,99838.34
2022-07-25T10:45:57.220Z,99838.28
2022-07-25T10:48:30.844Z,99841.03
2022-07-25T10:51:08.385Z,99852.03
2022-07-25T10:53:47.106Z,99857.56
2022-07-25T10:56:27.177Z,99844.41
2022-07-25T10:59:02.165Z,99845.03
2022-07-25T11:01:36.741Z,99848.94
2022-07-25T11:04:15.949Z,99846.22
2022-07-25T11:06:43.665Z,99851.44
2022-07-25T11:09:22.702Z,99863.19
2022-07-25T11:11:57.399Z,99876.81
2022-07-25T11:14:41.909Z,99874.94
2022-07-25T11:17:15.823Z,99890.34
2022-07-25T11:19:45.288Z,99877.06
2022-07-25T11:22:12.389Z,99880.72
2022-07-25T11:24:47.369Z,99882.47
2022-07-25T11:27:40.755Z,99883.84
2022-07-25T11:30:17.688Z,99887.34
2022-07-25T11:32:50.006Z,99890.13
2022-07-25T11:35:26.916Z,99892.34
2022-07-25T11:37:55.453Z,99908.28
2022-07-25T11:42:53.114Z,99921.25
2022-07-25T11:45:40.108Z,99913.13
2022-07-25T11:48:13.552Z,99912.94
2022-07-25T11:50:45.425Z,99920.06
2022-07-25T11:53:14.926Z,99923.75
2022-07-25T11:55:43.919Z,99925.75
2022-07-25T11:58:15.497Z,99928.47
2022-07-25T12:00:47.229Z,99932.88
2022-07-25T12:03:20.474Z,99934.09
2022-07-25T12:05:49.914Z,99946.81
2022-07-25T12:08:20.874Z,99936.63
2022-07-25T12:10:49.374Z,99945.00
2022-07-25T12:13:24.617Z,99945.13
2022-07-25T12:15:51.467Z,99943.72
2022-07-25T12:18:18.604Z,99952.56
2022-07-25T12:20:45.499Z,99961.03
2022-07-25T12:23:14.567Z,99962.16
2022-07-25T12:25:45.318Z,99967.72
2022-07-25T12:28:13.124Z,99967.31
2022-07-25T12:30:42.759Z,99977.97
2022-07-25T12:33:10.125Z,99978.47
2022-07-25T12:35:37.659Z,99977.41
2022-07-25T12:38:05.295Z,99989.22
2022-07-25T12:40:33.314Z,99979.84
2022-07-25T12:43:00.559Z,99992.50
2022-07-25T12:45:28.275Z,99983.88
2022-07-25T12:47:55.974Z,99987.59
2022-07-25T12:50:25.992Z,99992.63
2022-07-25T12:52:53.797Z,99994.69
2022-07-25T12:55:21.783Z,99992.19
2022-07-25T12:57:50.245Z,99999.19
2022-07-25T13:00:21.850Z,99995.00
2022-07-25T13:02:52.210Z,99999.19
2022-07-25T13:05:20.641Z,99986.16
2022-07-25T13:07:49.337Z,99992.41
2022-07-25T13:10:17.650Z,99996.38
2022-07-25T13:12:45.017Z,100005.41
2022-07-25T13:15:11.960Z,100013.25
2022-07-25T13:17:40.572Z,100017.88
2022-07-25T13:20:08.811Z,100028.28
2022-07-25T13:22:35.773Z,100027.91
2022-07-25T13:25:02.696Z,100039.91
2022-07-25T13:27:29.516Z,100045.09
2022-07-25T13:29:58.127Z,100043.25
2022-07-25T13:32:26.834Z,100039.09
2022-07-25T13:34:53.690Z,100050.50
2022-07-25T13:37:20.813Z,100060.59
2022-07-25T13:39:47.733Z,100065.75
2022-07-25T13:42:14.592Z,100070.34
2022-07-25T13:44:41.466Z,100073.63
2022-07-25T13:47:08.818Z,100075.09
2022-07-25T13:49:37.141Z,100076.59
2022-07-25T13:52:04.678Z,100074.44
2022-07-25T13:54:31.857Z,100071.59
2022-07-25T13:56:59.212Z,100076.50
2022-07-25T13:59:26.070Z,100072.34
2022-07-25T14:01:52.982Z,100075.00
2022-07-25T14:04:20.198Z,100076.59
2022-07-25T14:06:52.249Z,100081.59
2022-07-25T14:09:20.956Z,100074.31
2022-07-25T14:11:48.273Z,100081.53
2022-07-25T14:14:15.459Z,100088.41
2022-07-25T14:16:42.368Z,100089.75
2022-07-25T14:19:10.379Z,100090.94
2022-07-25T14:21:38.099Z,100103.34
2022-07-25T14:24:05.676Z,100111.72
2022-07-25T14:26:35.048Z,100117.69
2022-07-25T14:29:02.562Z,100117.41
2022-07-25T14:31:29.736Z,100117.94
2022-07-25T14:33:56.932Z,100124.72
2022-07-25T14:36:24.181Z,100131.91
2022-07-25T14:38:51.122Z,100133.72
2022-07-25T14:41:19.746Z,100136.59
2022-07-25T14:43:46.597Z,100135.88
2022-07-25T14:46:14.059Z,100139.44
2022-07-25T14:48:41.621Z,100139.16
2022-07-25T14:51:08.702Z,100135.53
2022-07-25T14:53:36.278Z,100141.63
2022-07-25T14:56:05.735Z,100144.00
2022-07-25T14:58:33.760Z,100145.50
2022-07-25T15:01:00.994Z,100144.78
2022-07-25T15:03:27.992Z,100142.13
2022-07-25T15:05:54.868Z,100148.41
2022-07-25T15:08:22.385Z,100149.28
2022-07-25T15:10:49.415Z,100150.66
2022-07-25T15:13:32.589Z,100155.31
2022-07-25T15:16:01.105Z,100161.69
2022-07-25T15:18:28.799Z,100169.94
2022-07-25T15:20:55.727Z,100175.16
2022-07-25T15:23:25.839Z,100182.19
2022-07-25T15:26:01.767Z,100203.91
2022-07-25T15:28:32.681Z,100209.50
2022-07-25T15:30:59.607Z,100222.94
2022-07-25T15:33:26.596Z,100232.75
2022-07-25T15:35:53.580Z,100226.91
2022-07-25T15:38:20.726Z,100229.31
2022-07-25T15:40:48.212Z,100243.53
2022-07-25T15:43:15.117Z,100239.84
2022-07-25T15:45:46.037Z,100246.06
2022-07-25T15:48:15.133Z,100247.75
2022-07-25T15:50:48.573Z,100245.84
2022-07-25T15:53:16.000Z,100247.03
2022-07-25T15:55:43.576Z,100251.44
2022-07-25T15:58:11.668Z,100244.50
2022-07-25T16:00:39.960Z,100251.31
2022-07-25T16:03:07.823Z,100266.47
2022-07-25T16:05:35.653Z,100265.66
2022-07-25T16:08:03.599Z,100266.84
2022-07-25T16:10:32.880Z,100267.22
2022-07-25T16:13:00.357Z,100267.53
2022-07-25T16:15:28.556Z,100276.16
2022-07-25T16:18:01.883Z,100280.34
2022-07-25T16:20:30.136Z,100281.53
2022-07-25T16:22:59.301Z,100283.78
2022-07-25T16:25:28.243Z,100284.97
2022-07-25T16:27:55.690Z,100299.81
2022-07-25T16:30:23.025Z,100300.63
2022-07-25T16:32:49.920Z,100293.81
2022-07-25T16:35:17.114Z,100303.88
2022-07-25T16:37:44.464Z,100309.59
2022-07-25T16:40:12.688Z,100316.06
2022-07-25T16:42:39.917Z,100312.13
2022-07-25T16:45:07.970Z,100316.88
2022-07-25T16:47:35.199Z,100314.63
2022-07-25T16:50:02.344Z,100325.97
2022-07-25T16:52:29.181Z,100326.47
2022-07-25T16:54:56.028Z,100332.31
2022-07-25T16:57:24.729Z,100341.59
2022-07-25T16:59:53.698Z,100324.63
2022-07-25T17:02:28.904Z,100336.19
2022-07-25T17:04:57.507Z,100334.75
2022-07-25T17:07:25.183Z,100343.00
2022-07-25T17:09:52.408Z,100349.09
2022-07-25T17:12:20.283Z,100351.69
2022-07-25T17:14:48.119Z,100347.56
2022-07-25T17:17:14.941Z,100350.91
2022-07-25T17:19:42.384Z,100346.13
2022-07-25T17:22:10.720Z,100352.59
2022-07-25T17:24:39.521Z,100362.75
2022-07-25T17:27:08.448Z,100365.50
2022-07-25T17:29:36.206Z,100371.47
2022-07-25T17:32:07.321Z,100372.56
2022-07-25T17:34:34.723Z,100377.53
2022-07-25T17:37:03.190Z,100394.19
2022-07-25T17:39:34.482Z,100385.44
2022-07-25T17:42:02.224Z,100406.53
2022-07-25T17:44:29.159Z,100431.47
2022-07-25T17:46:56.074Z,100443.94
2022-07-25T17:49:23.017Z,100440.44
2022-07-25T17:51:50.299Z,100444.06
2022-07-25T17:54:17.745Z,100438.19
2022-07-25T17:56:45.588Z,100433.59
2022-07-25T17:59:13.241Z,100437.16
2022-07-25T18:01:40.259Z,100440.47
2022-07-25T18:04:07.707Z,100446.97
2022-07-25T18:06:34.988Z,100450.13
2022-07-25T18:09:02.237Z,100442.72
2022-07-25T18:11:29.115Z,100442.25
2022-07-25T18:13:56.015Z,100451.41
2022-07-25T18:16:23.223Z,100459.41
2022-07-25T18:18:50.133Z,100463.72
2022-07-25T18:21:17.306Z,100476.34
2022-07-25T18:23:44.116Z,100475.31
2022-07-25T18:26:11.097Z,100466.97
2022-07-25T18:28:38.367Z,100460.06
2022-07-25T18:31:05.875Z,100458.97
2022-07-25T18:33:33.045Z,100464.25
2022-07-25T18:36:04.098Z,100466.31
2022-07-25T18:38:34.392Z,100475.53
2022-07-25T18:41:27.479Z,100474.31
2022-07-25T18:43:50.254Z,100472.03
2022-07-25T18:46:18.201Z,100472.72
2022-07-25T18:48:46.245Z,100479.25
2022-07-25T18:51:13.490Z,100483.50
2022-07-25T18:53:42.825Z,100493.38
2022-07-25T18:56:13.337Z,100489.50
2022-07-25T18:58:40.944Z,100502.72
2022-07-25T19:01:09.463Z,100494.00
2022-07-25T19:03:37.752Z,100508.16
2022-07-25T19:06:05.565Z,100513.19
2022-07-25T19:08:33.060Z,100506.28
2022-07-25T19:11:00.117Z,100494.72
2022-07-25T19:13:48.205Z,100496.03
2022-07-25T19:16:15.691Z,100499.44
2022-07-25T19:18:43.006Z,100500.72
2022-07-25T19:21:10.613Z,100500.56
2022-07-25T19:23:37.658Z,100494.06
2022-07-25T19:26:04.608Z,100490.50
2022-07-25T19:28:31.583Z,100501.00
2022-07-25T19:31:01.689Z,100508.38
2022-07-25T19:33:34.830Z,100511.31
2022-07-25T19:36:04.506Z,100515.81
2022-07-25T19:38:31.452Z,100531.59
2022-07-25T19:40:58.432Z,100526.13
2022-07-25T19:43:25.626Z,100533.06
2022-07-25T19:45:52.506Z,100542.13
2022-07-25T19:48:23.815Z,100554.13
2022-07-25T19:50:51.986Z,100550.97
2022-07-25T19:53:19.153Z,100566.34
2022-07-25T19:55:46.064Z,100567.84
2022-07-25T19:58:12.888Z,100577.31
2022-07-25T20:00:40.133Z,100586.38
2022-07-25T20:03:07.281Z,100574.78
2022-07-25T20:05:34.766Z,100586.78
2022-07-25T20:08:01.815Z,100587.66
2022-07-25T20:10:28.828Z,100597.75
2022-07-25T20:12:59.566Z,100600.47
2022-07-25T20:15:28.586Z,100594.16
2022-07-25T20:17:56.930Z,100600.28
2022-07-25T20:20:24.875Z,100609.31
2022-07-25T20:22:52.108Z,100620.66
2022-07-25T20:25:20.021Z,100615.00
2022-07-25T20:27:49.854Z,100626.97
2022-07-25T20:30:18.063Z,100630.56
2022-07-25T20:32:45.237Z,100637.06
2022-07-25T20:35:12.407Z,100639.41
2022-07-25T20:37:39.489Z,100641.06
2022-07-25T20:40:08.742Z,100643.59
2022-07-25T20:42:37.989Z,100639.16
2022-07-25T20:45:06.743Z,100644.00
2022-07-25T20:47:34.611Z,100652.22
2022-07-25T20:50:01.985Z,100652.63
2022-07-25T20:52:30.419Z,100658.97
2022-07-25T20:54:57.387Z,100656.44
2022-07-25T20:57:24.386Z,100668.84
2022-07-25T20:59:51.423Z,100661.06
2022-07-25T21:02:18.822Z,100665.69
2022-07-25T21:04:48.539Z,100662.28
2022-07-25T21:07:16.925Z,100668.59
2022-07-25T21:09:44.684Z,100671.09
2022-07-25T21:12:11.615Z,100669.63
2022-07-25T21:14:38.600Z,100660.31
2022-07-25T21:17:06.914Z,100656.75
2022-07-25T21:19:33.937Z,100661.13
2022-07-25T21:22:02.180Z,100665.28
2022-07-25T21:24:29.086Z,100659.63
2022-07-25T21:26:55.919Z,100657.09
2022-07-25T21:29:22.794Z,100657.34
2022-07-25T21:31:50.039Z,100661.88
2022-07-25T21:34:16.958Z,100659.78
2022-07-25T21:36:43.814Z,100667.97
2022-07-25T21:39:10.919Z,100665.88
2022-07-25T21:41:38.024Z,100662.06
2022-07-25T21:44:05.915Z,100675.13
2022-07-25T21:46:32.927Z,100675.97
2022-07-25T21:49:18.421Z,100673.63
2022-07-25T21:52:05.830Z,100681.00
2022-07-25T21:54:33.325Z,100679.03
2022-07-25T21:57:00.177Z,100679.72
2022-07-25T21:59:27.218Z,100675.41
2022-07-25T22:01:54.089Z,100686.13
2022-07-25T22:04:21.613Z,100694.56
2022-07-25T22:06:48.600Z,100701.44
2022-07-25T22:09:15.466Z,100699.34
2022-07-25T22:11:46.434Z,100709.00
2022-07-25T22:14:14.499Z,100701.63
2022-07-25T22:16:42.173Z,100698.44
2022-07-25T22:19:09.544Z,100708.16
2022-07-25T22:21:36.831Z,100707.69
2022-07-25T22:24:03.801Z,100708.91
2022-07-25T22:26:30.624Z,100711.28
2022-07-25T22:28:57.538Z,100698.22
2022-07-25T22:31:24.446Z,100710.88
2022-07-25T22:33:51.646Z,100700.53
2022-07-25T22:36:18.699Z,100692.09
2022-07-25T22:38:46.019Z,100691.72
2022-07-25T22:41:13.147Z,100701.38
2022-07-25T22:43:57.590Z,100707.84
2022-07-25T22:46:28.577Z,100712.28
2022-07-25T22:48:56.721Z,100711.47
2022-07-25T22:51:24.286Z,100713.94
2022-07-25T22:53:51.524Z,100710.81
2022-07-25T22:56:18.957Z,100719.81
2022-07-25T22:58:48.698Z,100729.69
2022-07-25T23:01:17.903Z,100730.72
2022-07-25T23:03:45.716Z,100729.28
2022-07-25T23:06:13.296Z,100723.00
2022-07-25T23:08:40.080Z,100735.19
2022-07-25T23:11:07.004Z,100737.53
2022-07-25T23:13:35.441Z,100726.16
2022-07-25T23:16:03.413Z,100735.22
2022-07-25T23:18:31.422Z,100732.72
2022-07-25T23:20:58.495Z,100733.56
2022-07-25T23:23:25.823Z,100740.50
2022-07-25T23:25:52.860Z,100743.63
2022-07-25T23:28:19.741Z,100733.56
2022-07-25T23:30:47.204Z,100732.28
2022-07-25T23:33:14.042Z,100743.00
2022-07-25T23:35:42.415Z,100748.00
2022-07-25T23:38:10.956Z,100745.22
2022-07-25T23:40:37.996Z,100750.03
2022-07-25T23:43:05.173Z,100746.31
2022-07-25T23:45:32.584Z,100755.94
2022-07-25T23:47:59.793Z,100749.00
2022-07-25T23:50:26.897Z,100753.59
2022-07-25T23:52:53.900Z,100748.13
2022-07-25T23:55:20.822Z,100749.38
2022-07-25T23:57:47.655Z,100751.88
